sensor_id;sensor_type;location;lat;lon;timestamp;P1;durP1;ratioP1;P2;durP2;ratioP2
35877;SDS011;21982;49.804;24.072;2022-09-16T00:00:30;5.97;;;2.80;;
35877;SDS011;21982;49.804;24.072;2022-09-16T00:02:59;7.20;;;3.53;;
35877;SDS011;21982;49.804;24.072;2022-09-16T00:05:25;6.88;;;3.60;;
35877;SDS011;21982;49.804;24.072;2022-09-16T00:07:50;6.80;;;3.70;;
35877;SDS011;21982;49.804;24.072;2022-09-16T00:10:16;8.40;;;3.67;;
35877;SDS011;21982;49.804;24.072;2022-09-16T00:12:42;7.28;;;3.58;;
35877;SDS011;21982;49.804;24.072;2022-09-16T00:15:08;8.77;;;3.67;;
35877;SDS011;21982;49.804;24.072;2022-09-16T00:17:34;7.03;;;3.50;;
35877;SDS011;21982;49.804;24.072;2022-09-16T00:20:02;7.13;;;3.00;;
35877;SDS011;21982;49.804;24.072;2022-09-16T00:22:28;8.10;;;3.97;;
35877;SDS011;21982;49.804;24.072;2022-09-16T00:24:54;7.88;;;4.30;;
35877;SDS011;21982;49.804;24.072;2022-09-16T00:27:20;7.30;;;3.35;;
35877;SDS011;21982;49.804;24.072;2022-09-16T00:29:45;6.40;;;3.40;;
35877;SDS011;21982;49.804;24.072;2022-09-16T00:32:11;6.32;;;3.55;;
35877;SDS011;21982;49.804;24.072;2022-09-16T00:34:36;7.97;;;3.40;;
35877;SDS011;21982;49.804;24.072;2022-09-16T00:37:01;7.03;;;3.70;;
35877;SDS011;21982;49.804;24.072;2022-09-16T00:39:32;6.68;;;3.58;;
35877;SDS011;21982;49.804;24.072;2022-09-16T00:42:02;7.60;;;3.92;;
35877;SDS011;21982;49.804;24.072;2022-09-16T00:47:25;6.20;;;3.53;;
35877;SDS011;21982;49.804;24.072;2022-09-16T00:49:58;7.28;;;3.42;;
35877;SDS011;21982;49.804;24.072;2022-09-16T00:52:34;6.85;;;3.08;;
35877;SDS011;21982;49.804;24.072;2022-09-16T00:55:01;8.07;;;3.50;;
35877;SDS011;21982;49.804;24.072;2022-09-16T00:57:35;8.35;;;4.15;;
35877;SDS011;21982;49.804;24.072;2022-09-16T01:00:02;9.75;;;3.85;;
35877;SDS011;21982;49.804;24.072;2022-09-16T01:02:31;10.05;;;3.83;;
35877;SDS011;21982;49.804;24.072;2022-09-16T01:05:01;6.65;;;3.78;;
35877;SDS011;21982;49.804;24.072;2022-09-16T01:07:36;7.45;;;3.65;;
35877;SDS011;21982;49.804;24.072;2022-09-16T01:10:06;6.50;;;3.53;;
35877;SDS011;21982;49.804;24.072;2022-09-16T01:12:43;8.43;;;4.32;;
35877;SDS011;21982;49.804;24.072;2022-09-16T01:15:13;7.68;;;3.67;;
35877;SDS011;21982;49.804;24.072;2022-09-16T01:21:09;9.35;;;5.38;;
35877;SDS011;21982;49.804;24.072;2022-09-16T01:30:26;11.13;;;5.07;;
35877;SDS011;21982;49.804;24.072;2022-09-16T01:32:57;9.27;;;5.55;;
35877;SDS011;21982;49.804;24.072;2022-09-16T01:54:30;12.98;;;6.28;;
35877;SDS011;21982;49.804;24.072;2022-09-16T01:57:10;11.70;;;6.90;;
35877;SDS011;21982;49.804;24.072;2022-09-16T01:59:45;11.50;;;6.95;;
35877;SDS011;21982;49.804;24.072;2022-09-16T02:02:35;10.20;;;5.63;;
35877;SDS011;21982;49.804;24.072;2022-09-16T02:05:14;12.25;;;6.38;;
35877;SDS011;21982;49.804;24.072;2022-09-16T02:07:45;11.57;;;6.38;;
35877;SDS011;21982;49.804;24.072;2022-09-16T02:10:21;13.88;;;6.32;;
35877;SDS011;21982;49.804;24.072;2022-09-16T02:12:51;13.77;;;7.07;;
35877;SDS011;21982;49.804;24.072;2022-09-16T02:15:20;12.35;;;6.78;;
35877;SDS011;21982;49.804;24.072;2022-09-16T02:17:51;14.85;;;6.15;;
35877;SDS011;21982;49.804;24.072;2022-09-16T02:20:24;10.38;;;6.13;;
35877;SDS011;21982;49.804;24.072;2022-09-16T02:22:57;13.57;;;6.30;;
35877;SDS011;21982;49.804;24.072;2022-09-16T02:25:30;13.82;;;6.75;;
35877;SDS011;21982;49.804;24.072;2022-09-16T02:27:58;17.75;;;6.57;;
35877;SDS011;21982;49.804;24.072;2022-09-16T02:30:27;12.07;;;7.25;;
35877;SDS011;21982;49.804;24.072;2022-09-16T02:32:57;15.18;;;6.30;;
35877;SDS011;21982;49.804;24.072;2022-09-16T02:35:28;13.27;;;7.78;;
35877;SDS011;21982;49.804;24.072;2022-09-16T02:37:59;14.90;;;7.63;;
35877;SDS011;21982;49.804;24.072;2022-09-16T02:40:31;17.75;;;7.75;;
35877;SDS011;21982;49.804;24.072;2022-09-16T02:43:01;12.02;;;6.40;;
35877;SDS011;21982;49.804;24.072;2022-09-16T02:45:48;15.13;;;7.57;;
35877;SDS011;21982;49.804;24.072;2022-09-16T02:54:04;15.60;;;7.45;;
35877;SDS011;21982;49.804;24.072;2022-09-16T02:56:45;12.93;;;7.35;;
35877;SDS011;21982;49.804;24.072;2022-09-16T02:59:11;13.30;;;6.90;;
35877;SDS011;21982;49.804;24.072;2022-09-16T03:01:40;12.18;;;6.38;;
35877;SDS011;21982;49.804;24.072;2022-09-16T03:04:12;12.55;;;7.20;;
35877;SDS011;21982;49.804;24.072;2022-09-16T03:06:40;10.98;;;6.90;;
35877;SDS011;21982;49.804;24.072;2022-09-16T03:09:09;15.23;;;7.28;;
35877;SDS011;21982;49.804;24.072;2022-09-16T03:28:36;14.32;;;7.72;;
35877;SDS011;21982;49.804;24.072;2022-09-16T03:31:26;13.90;;;7.60;;
35877;SDS011;21982;49.804;24.072;2022-09-16T03:33:56;11.90;;;7.07;;
35877;SDS011;21982;49.804;24.072;2022-09-16T03:36:31;13.45;;;7.22;;
35877;SDS011;21982;49.804;24.072;2022-09-16T03:39:00;12.73;;;7.28;;
35877;SDS011;21982;49.804;24.072;2022-09-16T03:41:28;14.18;;;7.75;;
35877;SDS011;21982;49.804;24.072;2022-09-16T03:43:59;13.35;;;7.88;;
35877;SDS011;21982;49.804;24.072;2022-09-16T03:46:25;21.98;;;9.23;;
35877;SDS011;21982;49.804;24.072;2022-09-16T03:48:53;14.93;;;8.50;;
35877;SDS011;21982;49.804;24.072;2022-09-16T03:51:19;16.05;;;8.27;;
35877;SDS011;21982;49.804;24.072;2022-09-16T03:53:45;14.98;;;8.45;;
35877;SDS011;21982;49.804;24.072;2022-09-16T03:56:10;15.10;;;8.40;;
35877;SDS011;21982;49.804;24.072;2022-09-16T03:58:36;15.57;;;8.55;;
35877;SDS011;21982;49.804;24.072;2022-09-16T04:01:01;18.00;;;9.68;;
35877;SDS011;21982;49.804;24.072;2022-09-16T04:03:28;15.45;;;9.15;;
35877;SDS011;21982;49.804;24.072;2022-09-16T04:05:56;13.70;;;8.70;;
35877;SDS011;21982;49.804;24.072;2022-09-16T04:08:22;19.50;;;9.20;;
35877;SDS011;21982;49.804;24.072;2022-09-16T04:10:54;19.15;;;11.20;;
35877;SDS011;21982;49.804;24.072;2022-09-16T04:13:21;15.13;;;9.68;;
35877;SDS011;21982;49.804;24.072;2022-09-16T04:15:48;18.25;;;10.35;;
35877;SDS011;21982;49.804;24.072;2022-09-16T04:18:14;17.88;;;12.20;;
35877;SDS011;21982;49.804;24.072;2022-09-16T04:20:39;23.42;;;12.77;;
35877;SDS011;21982;49.804;24.072;2022-09-16T04:23:08;22.50;;;12.82;;
35877;SDS011;21982;49.804;24.072;2022-09-16T04:25:34;21.45;;;12.10;;
35877;SDS011;21982;49.804;24.072;2022-09-16T04:28:00;20.17;;;11.20;;
35877;SDS011;21982;49.804;24.072;2022-09-16T04:30:28;21.13;;;11.80;;
35877;SDS011;21982;49.804;24.072;2022-09-16T04:32:54;17.85;;;10.48;;
35877;SDS011;21982;49.804;24.072;2022-09-16T04:35:23;20.48;;;12.05;;
35877;SDS011;21982;49.804;24.072;2022-09-16T04:37:50;19.23;;;11.55;;
35877;SDS011;21982;49.804;24.072;2022-09-16T04:40:17;18.90;;;11.98;;
35877;SDS011;21982;49.804;24.072;2022-09-16T04:42:49;20.88;;;12.32;;
35877;SDS011;21982;49.804;24.072;2022-09-16T04:45:16;21.38;;;12.05;;
35877;SDS011;21982;49.804;24.072;2022-09-16T04:47:42;21.20;;;13.27;;
35877;SDS011;21982;49.804;24.072;2022-09-16T04:50:11;18.88;;;12.25;;
35877;SDS011;21982;49.804;24.072;2022-09-16T04:52:40;18.60;;;11.10;;
35877;SDS011;21982;49.804;24.072;2022-09-16T04:55:08;19.58;;;13.25;;
35877;SDS011;21982;49.804;24.072;2022-09-16T04:57:34;19.45;;;12.07;;
35877;SDS011;21982;49.804;24.072;2022-09-16T05:00:02;21.70;;;12.40;;
35877;SDS011;21982;49.804;24.072;2022-09-16T05:02:29;21.05;;;12.40;;
35877;SDS011;21982;49.804;24.072;2022-09-16T05:04:55;24.45;;;14.45;;
35877;SDS011;21982;49.804;24.072;2022-09-16T05:07:24;25.20;;;13.48;;
35877;SDS011;21982;49.804;24.072;2022-09-16T05:09:50;24.55;;;13.05;;
35877;SDS011;21982;49.804;24.072;2022-09-16T05:12:15;21.42;;;12.85;;
35877;SDS011;21982;49.804;24.072;2022-09-16T05:14:41;23.08;;;13.65;;
35877;SDS011;21982;49.804;24.072;2022-09-16T05:17:06;24.67;;;12.50;;
35877;SDS011;21982;49.804;24.072;2022-09-16T05:19:32;18.88;;;12.32;;
35877;SDS011;21982;49.804;24.072;2022-09-16T05:21:58;21.05;;;13.30;;
35877;SDS011;21982;49.804;24.072;2022-09-16T05:24:23;21.73;;;12.57;;
35877;SDS011;21982;49.804;24.072;2022-09-16T05:27:17;22.08;;;12.20;;
35877;SDS011;21982;49.804;24.072;2022-09-16T05:29:53;23.08;;;12.77;;
35877;SDS011;21982;49.804;24.072;2022-09-16T05:32:19;20.17;;;12.00;;
35877;SDS011;21982;49.804;24.072;2022-09-16T05:34:47;16.10;;;11.32;;
35877;SDS011;21982;49.804;24.072;2022-09-16T05:37:16;16.38;;;10.23;;
35877;SDS011;21982;49.804;24.072;2022-09-16T05:39:42;23.60;;;13.70;;
35877;SDS011;21982;49.804;24.072;2022-09-16T05:42:08;21.05;;;11.38;;
35877;SDS011;21982;49.804;24.072;2022-09-16T05:44:34;34.45;;;15.07;;
35877;SDS011;21982;49.804;24.072;2022-09-16T05:47:00;31.77;;;12.52;;
35877;SDS011;21982;49.804;24.072;2022-09-16T05:49:25;32.72;;;12.68;;
35877;SDS011;21982;49.804;24.072;2022-09-16T05:51:51;28.02;;;13.80;;
35877;SDS011;21982;49.804;24.072;2022-09-16T05:54:17;22.63;;;10.13;;
35877;SDS011;21982;49.804;24.072;2022-09-16T05:56:43;30.25;;;11.73;;
35877;SDS011;21982;49.804;24.072;2022-09-16T05:59:10;29.85;;;12.27;;
35877;SDS011;21982;49.804;24.072;2022-09-16T06:01:40;33.10;;;14.93;;
35877;SDS011;21982;49.804;24.072;2022-09-16T06:04:06;33.22;;;12.10;;
35877;SDS011;21982;49.804;24.072;2022-09-16T06:07:04;27.85;;;11.10;;
35877;SDS011;21982;49.804;24.072;2022-09-16T06:09:32;23.23;;;11.38;;
35877;SDS011;21982;49.804;24.072;2022-09-16T06:12:02;15.30;;;9.93;;
35877;SDS011;21982;49.804;24.072;2022-09-16T06:14:34;15.10;;;9.20;;
35877;SDS011;21982;49.804;24.072;2022-09-16T06:17:03;18.25;;;9.75;;
35877;SDS011;21982;49.804;24.072;2022-09-16T06:19:29;15.35;;;8.90;;
35877;SDS011;21982;49.804;24.072;2022-09-16T06:21:55;15.43;;;8.73;;
35877;SDS011;21982;49.804;24.072;2022-09-16T06:24:21;19.38;;;9.75;;
35877;SDS011;21982;49.804;24.072;2022-09-16T06:26:46;18.73;;;9.68;;
35877;SDS011;21982;49.804;24.072;2022-09-16T06:29:13;13.65;;;9.23;;
35877;SDS011;21982;49.804;24.072;2022-09-16T06:31:39;15.02;;;8.35;;
35877;SDS011;21982;49.804;24.072;2022-09-16T06:34:06;13.75;;;8.98;;
35877;SDS011;21982;49.804;24.072;2022-09-16T06:36:40;16.98;;;9.48;;
35877;SDS011;21982;49.804;24.072;2022-09-16T06:39:19;15.25;;;9.52;;
35877;SDS011;21982;49.804;24.072;2022-09-16T06:41:49;14.65;;;8.45;;
35877;SDS011;21982;49.804;24.072;2022-09-16T06:44:16;12.82;;;8.68;;
35877;SDS011;21982;49.804;24.072;2022-09-16T06:46:41;15.38;;;8.80;;
35877;SDS011;21982;49.804;24.072;2022-09-16T06:49:08;13.85;;;8.15;;
35877;SDS011;21982;49.804;24.072;2022-09-16T06:51:35;18.52;;;8.32;;
35877;SDS011;21982;49.804;24.072;2022-09-16T06:54:05;15.60;;;8.18;;
35877;SDS011;21982;49.804;24.072;2022-09-16T06:56:35;14.23;;;8.57;;
35877;SDS011;21982;49.804;24.072;2022-09-16T06:59:03;20.70;;;8.48;;
35877;SDS011;21982;49.804;24.072;2022-09-16T07:01:32;15.63;;;7.78;;
35877;SDS011;21982;49.804;24.072;2022-09-16T07:04:01;14.90;;;8.10;;
35877;SDS011;21982;49.804;24.072;2022-09-16T07:06:29;14.50;;;8.00;;
35877;SDS011;21982;49.804;24.072;2022-09-16T07:08:57;16.17;;;8.65;;
35877;SDS011;21982;49.804;24.072;2022-09-16T07:11:32;14.20;;;7.53;;
35877;SDS011;21982;49.804;24.072;2022-09-16T07:14:06;15.60;;;6.88;;
35877;SDS011;21982;49.804;24.072;2022-09-16T07:16:32;15.85;;;8.45;;
35877;SDS011;21982;49.804;24.072;2022-09-16T07:18:57;12.13;;;7.30;;
35877;SDS011;21982;49.804;24.072;2022-09-16T07:21:24;11.65;;;7.63;;
35877;SDS011;21982;49.804;24.072;2022-09-16T07:23:54;13.40;;;6.97;;
35877;SDS011;21982;49.804;24.072;2022-09-16T07:26:22;13.32;;;5.68;;
35877;SDS011;21982;49.804;24.072;2022-09-16T07:28:50;11.18;;;6.35;;
35877;SDS011;21982;49.804;24.072;2022-09-16T07:31:17;8.00;;;4.93;;
35877;SDS011;21982;49.804;24.072;2022-09-16T07:33:47;13.93;;;6.13;;
35877;SDS011;21982;49.804;24.072;2022-09-16T07:36:15;8.07;;;5.00;;
35877;SDS011;21982;49.804;24.072;2022-09-16T07:38:42;9.20;;;4.50;;
35877;SDS011;21982;49.804;24.072;2022-09-16T07:41:12;12.63;;;5.35;;
35877;SDS011;21982;49.804;24.072;2022-09-16T07:43:44;12.38;;;5.20;;
35877;SDS011;21982;49.804;24.072;2022-09-16T07:46:12;11.27;;;4.00;;
35877;SDS011;21982;49.804;24.072;2022-09-16T07:48:41;10.55;;;4.22;;
35877;SDS011;21982;49.804;24.072;2022-09-16T07:51:12;11.48;;;4.32;;
35877;SDS011;21982;49.804;24.072;2022-09-16T07:53:47;12.45;;;4.47;;
35877;SDS011;21982;49.804;24.072;2022-09-16T07:56:24;12.82;;;4.55;;
35877;SDS011;21982;49.804;24.072;2022-09-16T07:58:53;11.60;;;4.55;;
35877;SDS011;21982;49.804;24.072;2022-09-16T08:01:19;10.68;;;4.95;;
35877;SDS011;21982;49.804;24.072;2022-09-16T08:03:48;12.90;;;4.68;;
35877;SDS011;21982;49.804;24.072;2022-09-16T08:06:21;12.95;;;4.95;;
35877;SDS011;21982;49.804;24.072;2022-09-16T08:08:53;8.73;;;5.30;;
35877;SDS011;21982;49.804;24.072;2022-09-16T08:11:20;13.43;;;5.43;;
35877;SDS011;21982;49.804;24.072;2022-09-16T08:13:47;9.55;;;4.90;;
35877;SDS011;21982;49.804;24.072;2022-09-16T08:16:17;14.90;;;6.05;;
35877;SDS011;21982;49.804;24.072;2022-09-16T08:18:48;14.75;;;4.28;;
35877;SDS011;21982;49.804;24.072;2022-09-16T08:21:19;17.92;;;5.00;;
35877;SDS011;21982;49.804;24.072;2022-09-16T08:23:47;15.60;;;5.05;;
35877;SDS011;21982;49.804;24.072;2022-09-16T08:26:17;10.73;;;4.55;;
35877;SDS011;21982;49.804;24.072;2022-09-16T08:28:45;7.55;;;3.85;;
35877;SDS011;21982;49.804;24.072;2022-09-16T08:31:16;8.35;;;3.50;;
35877;SDS011;21982;49.804;24.072;2022-09-16T08:33:47;7.82;;;3.63;;
35877;SDS011;21982;49.804;24.072;2022-09-16T08:36:20;10.45;;;3.90;;
35877;SDS011;21982;49.804;24.072;2022-09-16T08:38:50;9.38;;;3.70;;
35877;SDS011;21982;49.804;24.072;2022-09-16T08:44:23;5.65;;;2.53;;
35877;SDS011;21982;49.804;24.072;2022-09-16T08:47:22;7.15;;;3.58;;
35877;SDS011;21982;49.804;24.072;2022-09-16T08:49:56;9.07;;;2.88;;
35877;SDS011;21982;49.804;24.072;2022-09-16T08:52:31;5.70;;;3.08;;
35877;SDS011;21982;49.804;24.072;2022-09-16T08:57:45;6.05;;;2.60;;
35877;SDS011;21982;49.804;24.072;2022-09-16T09:00:19;6.43;;;2.58;;
35877;SDS011;21982;49.804;24.072;2022-09-16T09:10:25;5.75;;;2.65;;
35877;SDS011;21982;49.804;24.072;2022-09-16T09:13:41;10.43;;;3.35;;
35877;SDS011;21982;49.804;24.072;2022-09-16T09:22:44;5.32;;;2.30;;
35877;SDS011;21982;49.804;24.072;2022-09-16T09:34:02;6.78;;;3.00;;
35877;SDS011;21982;49.804;24.072;2022-09-16T09:42:44;7.82;;;3.45;;
35877;SDS011;21982;49.804;24.072;2022-09-16T09:45:21;5.55;;;1.92;;
35877;SDS011;21982;49.804;24.072;2022-09-16T09:47:58;3.28;;;1.95;;
35877;SDS011;21982;49.804;24.072;2022-09-16T09:53:21;4.40;;;2.22;;
35877;SDS011;21982;49.804;24.072;2022-09-16T09:55:56;11.63;;;3.25;;
35877;SDS011;21982;49.804;24.072;2022-09-16T10:01:15;4.82;;;2.60;;
35877;SDS011;21982;49.804;24.072;2022-09-16T10:03:42;5.38;;;2.03;;
35877;SDS011;21982;49.804;24.072;2022-09-16T10:06:10;5.30;;;2.05;;
35877;SDS011;21982;49.804;24.072;2022-09-16T10:08:49;5.88;;;2.15;;
35877;SDS011;21982;49.804;24.072;2022-09-16T10:11:17;3.75;;;1.83;;
35877;SDS011;21982;49.804;24.072;2022-09-16T10:16:20;7.35;;;2.47;;
35877;SDS011;21982;49.804;24.072;2022-09-16T10:19:15;9.85;;;2.45;;
35877;SDS011;21982;49.804;24.072;2022-09-16T10:21:53;13.30;;;3.05;;
35877;SDS011;21982;49.804;24.072;2022-09-16T10:27:01;18.17;;;2.70;;
35877;SDS011;21982;49.804;24.072;2022-09-16T10:29:41;6.72;;;2.20;;
35877;SDS011;21982;49.804;24.072;2022-09-16T10:32:07;5.15;;;1.83;;
35877;SDS011;21982;49.804;24.072;2022-09-16T10:34:39;8.43;;;2.70;;
35877;SDS011;21982;49.804;24.072;2022-09-16T10:39:53;5.25;;;2.50;;
35877;SDS011;21982;49.804;24.072;2022-09-16T10:44:48;3.95;;;1.52;;
35877;SDS011;21982;49.804;24.072;2022-09-16T10:47:18;10.52;;;2.63;;
35877;SDS011;21982;49.804;24.072;2022-09-16T10:49:48;9.50;;;2.58;;
35877;SDS011;21982;49.804;24.072;2022-09-16T10:52:26;6.28;;;1.30;;
35877;SDS011;21982;49.804;24.072;2022-09-16T10:54:53;2.92;;;1.50;;
35877;SDS011;21982;49.804;24.072;2022-09-16T10:59:54;2.92;;;1.27;;
35877;SDS011;21982;49.804;24.072;2022-09-16T11:02:45;6.03;;;1.77;;
35877;SDS011;21982;49.804;24.072;2022-09-16T11:16:15;2.70;;;1.88;;
35877;SDS011;21982;49.804;24.072;2022-09-16T11:18:56;6.40;;;1.50;;
35877;SDS011;21982;49.804;24.072;2022-09-16T11:21:54;3.30;;;1.60;;
35877;SDS011;21982;49.804;24.072;2022-09-16T11:30:20;16.27;;;3.35;;
35877;SDS011;21982;49.804;24.072;2022-09-16T11:38:38;11.43;;;3.63;;
35877;SDS011;21982;49.804;24.072;2022-09-16T11:44:02;4.20;;;1.77;;
35877;SDS011;21982;49.804;24.072;2022-09-16T11:57:57;6.65;;;2.00;;
35877;SDS011;21982;49.804;24.072;2022-09-16T12:00:26;15.38;;;3.45;;
35877;SDS011;21982;49.804;24.072;2022-09-16T12:02:58;4.13;;;1.92;;
35877;SDS011;21982;49.804;24.072;2022-09-16T12:13:36;8.07;;;1.90;;
35877;SDS011;21982;49.804;24.072;2022-09-16T12:16:14;4.22;;;1.50;;
35877;SDS011;21982;49.804;24.072;2022-09-16T12:18:50;4.85;;;2.10;;
35877;SDS011;21982;49.804;24.072;2022-09-16T12:21:30;5.28;;;2.25;;
35877;SDS011;21982;49.804;24.072;2022-09-16T12:26:37;6.63;;;2.20;;
35877;SDS011;21982;49.804;24.072;2022-09-16T12:32:00;4.90;;;1.30;;
35877;SDS011;21982;49.804;24.072;2022-09-16T12:35:03;2.88;;;1.35;;
35877;SDS011;21982;49.804;24.072;2022-09-16T12:40:11;6.13;;;1.58;;
35877;SDS011;21982;49.804;24.072;2022-09-16T12:54:11;2.63;;;1.20;;
35877;SDS011;21982;49.804;24.072;2022-09-16T12:57:28;3.13;;;1.30;;
35877;SDS011;21982;49.804;24.072;2022-09-16T13:00:08;5.70;;;0.98;;
35877;SDS011;21982;49.804;24.072;2022-09-16T13:02:51;3.28;;;1.35;;
35877;SDS011;21982;49.804;24.072;2022-09-16T13:07:55;9.88;;;1.98;;
35877;SDS011;21982;49.804;24.072;2022-09-16T13:10:33;3.42;;;1.40;;
35877;SDS011;21982;49.804;24.072;2022-09-16T13:13:06;6.28;;;1.20;;
35877;SDS011;21982;49.804;24.072;2022-09-16T13:15:56;6.85;;;1.63;;
35877;SDS011;21982;49.804;24.072;2022-09-16T13:18:37;7.30;;;1.75;;
35877;SDS011;21982;49.804;24.072;2022-09-16T13:23:45;2.92;;;1.98;;
35877;SDS011;21982;49.804;24.072;2022-09-16T13:26:15;5.50;;;1.58;;
35877;SDS011;21982;49.804;24.072;2022-09-16T13:28:42;4.32;;;1.80;;
35877;SDS011;21982;49.804;24.072;2022-09-16T13:34:01;4.77;;;1.43;;
35877;SDS011;21982;49.804;24.072;2022-09-16T13:36:39;4.13;;;1.10;;
35877;SDS011;21982;49.804;24.072;2022-09-16T13:39:08;4.50;;;1.10;;
35877;SDS011;21982;49.804;24.072;2022-09-16T13:41:44;6.85;;;1.70;;
35877;SDS011;21982;49.804;24.072;2022-09-16T13:44:27;8.20;;;1.50;;
35877;SDS011;21982;49.804;24.072;2022-09-16T13:49:41;3.90;;;1.25;;
35877;SDS011;21982;49.804;24.072;2022-09-16T13:52:08;4.13;;;1.75;;
35877;SDS011;21982;49.804;24.072;2022-09-16T13:54:40;6.82;;;1.75;;
35877;SDS011;21982;49.804;24.072;2022-09-16T14:13:14;5.57;;;2.08;;
35877;SDS011;21982;49.804;24.072;2022-09-16T14:15:46;4.20;;;1.30;;
35877;SDS011;21982;49.804;24.072;2022-09-16T14:18:17;5.80;;;2.08;;
35877;SDS011;21982;49.804;24.072;2022-09-16T14:21:15;7.97;;;2.65;;
35877;SDS011;21982;49.804;24.072;2022-09-16T14:23:46;5.50;;;1.58;;
35877;SDS011;21982;49.804;24.072;2022-09-16T14:26:13;2.05;;;0.93;;
35877;SDS011;21982;49.804;24.072;2022-09-16T14:28:43;5.30;;;1.75;;
35877;SDS011;21982;49.804;24.072;2022-09-16T14:31:11;3.05;;;1.58;;
35877;SDS011;21982;49.804;24.072;2022-09-16T14:33:48;4.97;;;1.70;;
35877;SDS011;21982;49.804;24.072;2022-09-16T14:36:24;8.98;;;2.35;;
35877;SDS011;21982;49.804;24.072;2022-09-16T14:38:54;6.32;;;2.05;;
35877;SDS011;21982;49.804;24.072;2022-09-16T14:41:27;6.43;;;1.85;;
35877;SDS011;21982;49.804;24.072;2022-09-16T14:49:13;5.38;;;1.63;;
35877;SDS011;21982;49.804;24.072;2022-09-16T14:51:47;5.72;;;1.60;;
35877;SDS011;21982;49.804;24.072;2022-09-16T14:54:20;4.72;;;1.73;;
35877;SDS011;21982;49.804;24.072;2022-09-16T14:56:54;3.58;;;1.52;;
35877;SDS011;21982;49.804;24.072;2022-09-16T14:59:25;3.95;;;1.60;;
35877;SDS011;21982;49.804;24.072;2022-09-16T15:01:55;8.98;;;2.10;;
35877;SDS011;21982;49.804;24.072;2022-09-16T15:04:32;8.13;;;3.25;;
35877;SDS011;21982;49.804;24.072;2022-09-16T15:07:07;7.07;;;2.67;;
35877;SDS011;21982;49.804;24.072;2022-09-16T15:12:12;7.15;;;2.10;;
35877;SDS011;21982;49.804;24.072;2022-09-16T15:15:14;3.60;;;1.88;;
35877;SDS011;21982;49.804;24.072;2022-09-16T15:18:05;6.47;;;2.13;;
35877;SDS011;21982;49.804;24.072;2022-09-16T15:20:36;5.65;;;1.98;;
35877;SDS011;21982;49.804;24.072;2022-09-16T15:23:05;4.15;;;2.08;;
35877;SDS011;21982;49.804;24.072;2022-09-16T15:25:49;3.88;;;1.83;;
35877;SDS011;21982;49.804;24.072;2022-09-16T15:28:18;5.03;;;1.60;;
35877;SDS011;21982;49.804;24.072;2022-09-16T15:30:45;6.75;;;1.50;;
35877;SDS011;21982;49.804;24.072;2022-09-16T15:35:48;7.70;;;2.33;;
35877;SDS011;21982;49.804;24.072;2022-09-16T15:38:19;11.57;;;2.13;;
35877;SDS011;21982;49.804;24.072;2022-09-16T15:40:46;8.05;;;2.05;;
35877;SDS011;21982;49.804;24.072;2022-09-16T15:43:13;5.05;;;2.50;;
35877;SDS011;21982;49.804;24.072;2022-09-16T15:45:42;6.88;;;2.35;;
35877;SDS011;21982;49.804;24.072;2022-09-16T15:48:15;7.32;;;2.78;;
35877;SDS011;21982;49.804;24.072;2022-09-16T15:50:44;4.25;;;2.08;;
35877;SDS011;21982;49.804;24.072;2022-09-16T15:53:18;4.50;;;2.22;;
35877;SDS011;21982;49.804;24.072;2022-09-16T15:58:50;6.47;;;2.35;;
35877;SDS011;21982;49.804;24.072;2022-09-16T16:04:07;6.88;;;3.28;;
35877;SDS011;21982;49.804;24.072;2022-09-16T16:06:49;5.55;;;2.30;;
35877;SDS011;21982;49.804;24.072;2022-09-16T16:09:29;5.65;;;2.60;;
35877;SDS011;21982;49.804;24.072;2022-09-16T16:11:58;9.18;;;3.28;;
35877;SDS011;21982;49.804;24.072;2022-09-16T16:14:26;7.47;;;2.90;;
35877;SDS011;21982;49.804;24.072;2022-09-16T16:17:15;8.23;;;3.42;;
35877;SDS011;21982;49.804;24.072;2022-09-16T16:19:47;10.40;;;3.92;;
35877;SDS011;21982;49.804;24.072;2022-09-16T16:22:14;10.27;;;3.92;;
35877;SDS011;21982;49.804;24.072;2022-09-16T16:24:41;7.68;;;3.17;;
35877;SDS011;21982;49.804;24.072;2022-09-16T16:27:07;4.72;;;2.40;;
35877;SDS011;21982;49.804;24.072;2022-09-16T16:29:34;5.78;;;2.40;;
35877;SDS011;21982;49.804;24.072;2022-09-16T16:34:33;8.10;;;4.03;;
35877;SDS011;21982;49.804;24.072;2022-09-16T16:36:59;10.07;;;3.88;;
35877;SDS011;21982;49.804;24.072;2022-09-16T16:39:25;11.60;;;3.85;;
35877;SDS011;21982;49.804;24.072;2022-09-16T16:41:51;8.52;;;4.05;;
35877;SDS011;21982;49.804;24.072;2022-09-16T16:44:23;10.98;;;3.95;;
35877;SDS011;21982;49.804;24.072;2022-09-16T16:46:53;9.32;;;3.70;;
35877;SDS011;21982;49.804;24.072;2022-09-16T16:49:20;9.07;;;4.40;;
35877;SDS011;21982;49.804;24.072;2022-09-16T16:51:49;7.70;;;4.53;;
35877;SDS011;21982;49.804;24.072;2022-09-16T16:54:16;9.50;;;5.35;;
35877;SDS011;21982;49.804;24.072;2022-09-16T16:56:46;11.10;;;4.85;;
35877;SDS011;21982;49.804;24.072;2022-09-16T16:59:12;9.23;;;4.65;;
35877;SDS011;21982;49.804;24.072;2022-09-16T17:01:38;10.57;;;5.88;;
35877;SDS011;21982;49.804;24.072;2022-09-16T17:04:08;11.23;;;4.05;;
35877;SDS011;21982;49.804;24.072;2022-09-16T17:06:34;7.38;;;4.22;;
35877;SDS011;21982;49.804;24.072;2022-09-16T17:09:02;9.20;;;4.55;;
35877;SDS011;21982;49.804;24.072;2022-09-16T17:11:29;8.00;;;4.43;;
35877;SDS011;21982;49.804;24.072;2022-09-16T17:14:02;8.68;;;4.13;;
35877;SDS011;21982;49.804;24.072;2022-09-16T17:16:30;14.48;;;5.60;;
35877;SDS011;21982;49.804;24.072;2022-09-16T17:18:59;19.35;;;6.25;;
35877;SDS011;21982;49.804;24.072;2022-09-16T17:21:27;14.63;;;5.85;;
35877;SDS011;21982;49.804;24.072;2022-09-16T17:23:55;11.88;;;4.57;;
35877;SDS011;21982;49.804;24.072;2022-09-16T17:26:21;13.43;;;6.22;;
35877;SDS011;21982;49.804;24.072;2022-09-16T17:28:48;12.20;;;6.70;;
35877;SDS011;21982;49.804;24.072;2022-09-16T17:31:19;12.55;;;5.43;;
35877;SDS011;21982;49.804;24.072;2022-09-16T17:33:53;9.70;;;4.10;;
35877;SDS011;21982;49.804;24.072;2022-09-16T17:36:24;9.43;;;4.18;;
35877;SDS011;21982;49.804;24.072;2022-09-16T17:38:58;8.52;;;4.65;;
35877;SDS011;21982;49.804;24.072;2022-09-16T17:41:26;11.35;;;5.55;;
35877;SDS011;21982;49.804;24.072;2022-09-16T17:43:56;11.35;;;5.93;;
35877;SDS011;21982;49.804;24.072;2022-09-16T17:46:23;12.90;;;5.75;;
35877;SDS011;21982;49.804;24.072;2022-09-16T17:48:51;12.85;;;5.50;;
35877;SDS011;21982;49.804;24.072;2022-09-16T17:51:28;11.00;;;4.82;;
35877;SDS011;21982;49.804;24.072;2022-09-16T17:53:58;11.75;;;7.00;;
35877;SDS011;21982;49.804;24.072;2022-09-16T17:56:26;9.02;;;4.72;;
35877;SDS011;21982;49.804;24.072;2022-09-16T17:58:52;12.57;;;5.28;;
35877;SDS011;21982;49.804;24.072;2022-09-16T18:01:23;11.10;;;5.40;;
35877;SDS011;21982;49.804;24.072;2022-09-16T18:03:50;12.23;;;6.07;;
35877;SDS011;21982;49.804;24.072;2022-09-16T18:06:59;13.57;;;7.85;;
35877;SDS011;21982;49.804;24.072;2022-09-16T18:09:10;12.07;;;6.05;;
35877;SDS011;21982;49.804;24.072;2022-09-16T18:11:40;9.48;;;4.80;;
35877;SDS011;21982;49.804;24.072;2022-09-16T18:14:06;10.45;;;4.45;;
35877;SDS011;21982;49.804;24.072;2022-09-16T18:19:18;12.18;;;5.60;;
35877;SDS011;21982;49.804;24.072;2022-09-16T18:21:44;14.23;;;5.05;;
35877;SDS011;21982;49.804;24.072;2022-09-16T18:24:10;10.95;;;5.03;;
35877;SDS011;21982;49.804;24.072;2022-09-16T18:26:38;12.82;;;5.50;;
35877;SDS011;21982;49.804;24.072;2022-09-16T18:29:06;9.05;;;5.00;;